Meeker, CO (81641)

2:16 PM MDT on July 07, 2015 (GMT -0600)
Meeker | | Change Station
CLOSE
Current Station
Airport
Location: Meeker,
Elevation: 6421 ft
Nearby Weather Stations

Elev 6421 ft 40.05 °N, 107.89 °W | Updated 23 minutes ago

Overcast
Overcast
59 °F
Feels Like 59 °F
N
5
Wind Variable Wind from ESE

Today
High -- | Low -- °F
--% Chance of Precip.
Yesterday
High -- | Low -- °F
Precip. -- in
5:49 AM 8:43 PM
Waning Gibbous, 61% visible
Pressure 29.99 in
Visibility 4.0 miles
Clouds Mostly Cloudy 7000 ft
Overcast 8000 ft
Dew Point 55 °F
Humidity 87%
Rainfall 0.06 in
Snow Depth Not available.
UV 4 out of 12
Pollen 4.20 out of 12
Air Quality Not available.
Flu Activity Not available.
METAR KEEO 071953Z AUTO 11004KT 4SM RA BR BKN070 OVC080 15/13 A3018 RMK AO2 LTG DSNT N AND SW TSB1856E11 SLP153 P0004 T01500128

More Conditions Fewer Conditions

Pressure 29.99 in
Visibility 4.0 miles
Clouds Mostly Cloudy 7000 ft
Overcast 8000 ft
Dew Point 55 °F
Humidity 87%
Rainfall 0.06 in
Snow Depth Not available.
UV 4 out of 12
Pollen 4.20 out of 12
Air Quality Not available.
Flu Activity Not available.
METAR KEEO 071953Z AUTO 11004KT 4SM RA BR BKN070 OVC080 15/13 A3018 RMK AO2 LTG DSNT N AND SW TSB1856E11 SLP153 P0004 T01500128

More Conditions Fewer Conditions

10-Day Weather Forecast

×

Almanac

Astronomy

Jul. 07, 2015 Rise Set
Actual Time
Civil Twilight
Nautical Twilight
Astronomical Twilight
Moon
Length of Visible Light
Length of Day
Tomorrow will be .
, % of the Moon is Illuminated

Today's Extremes

State Highs State Lows

Community

WunderPhotos

Upload Photos

1,835,884 photos uploaded!

WunderBlogs® & News

Nearby

Air Quality

  Air Quality AQ Index Pollutant
Not available.

Snow Depth

Station Depth Elevation

Earthquake Activity

City Distance Mag. Time & Date
Minimum magnitude displayed is 2.5.

Coastal Water Temperatures

Place Temperature

Stations

Nearby Weather Stations

Station Location Temp. Windchill Dew Point Humidity Wind Precip. Elev Updated Type